Time;durP1;ratioP1;P1;durP2;ratioP2;P2;SDS_P1;SDS_P2;PMS_P1;PMS_P2;Temp;Humidity;BMP_temperature;BMP_pressure;BME280_temperature;BME280_humidity;BME280_pressure;Samples;Min_cycle;Max_cycle;Signal;HPM_P1;HPM_P2
2023/07/22 00:00:38;;;;;;;13.82;4.45;;;;;;;;;;5057265;28;20068;-77
2023/07/22 00:03:05;;;;;;;9.88;4.40;;;;;;;;;;5059040;28;20098;-77
2023/07/22 00:05:32;;;;;;;11.02;4.30;;;;;;;;;;5061760;28;20044;-77
2023/07/22 00:07:58;;;;;;;11.90;4.75;;;;;;;;;;5060238;28;20037;-77
2023/07/22 00:10:25;;;;;;;7.95;4.40;;;;;;;;;;5066732;28;20143;-76
2023/07/22 00:12:52;;;;;;;16.50;4.50;;;;;;;;;;5067601;28;20040;-77
2023/07/22 00:15:20;;;;;;;8.48;4.40;;;;;;;;;;5068536;28;20040;-77
2023/07/22 00:17:46;;;;;;;8.18;3.92;;;;;;;;;;5057721;28;20053;-77
2023/07/22 00:20:14;;;;;;;9.07;4.50;;;;;;;;;;5064303;28;20044;-78
2023/07/22 00:22:40;;;;;;;11.80;4.93;;;;;;;;;;5064626;28;20079;-78
2023/07/22 00:25:12;;;;;;;7.40;4.38;;;;;;;;;;5070766;28;20058;-78
2023/07/22 00:27:40;;;;;;;6.47;3.60;;;;;;;;;;5069369;28;20478;-77
2023/07/22 00:30:07;;;;;;;9.52;3.83;;;;;;;;;;5061168;28;20588;-76
2023/07/22 00:32:36;;;;;;;11.93;4.50;;;;;;;;;;5059733;28;20098;-76
2023/07/22 00:35:07;;;;;;;10.02;4.15;;;;;;;;;;5063691;28;20060;-77
2023/07/22 00:37:33;;;;;;;10.52;4.28;;;;;;;;;;5067382;28;21547;-78
2023/07/22 00:40:01;;;;;;;9.32;4.28;;;;;;;;;;5068456;28;20545;-77
2023/07/22 00:42:30;;;;;;;9.73;4.15;;;;;;;;;;5065927;28;20052;-78
2023/07/22 00:44:57;;;;;;;9.63;4.15;;;;;;;;;;5054106;28;20079;-77
2023/07/22 00:47:24;;;;;;;8.68;4.25;;;;;;;;;;5070563;28;20068;-78
2023/07/22 00:49:51;;;;;;;9.68;3.92;;;;;;;;;;5067900;28;20037;-78
2023/07/22 00:52:17;;;;;;;7.65;3.92;;;;;;;;;;5071955;28;20506;-78
2023/07/22 00:54:44;;;;;;;9.68;3.72;;;;;;;;;;5074657;28;20127;-79
2023/07/22 00:57:12;;;;;;;5.05;3.75;;;;;;;;;;5073395;28;20045;-78
2023/07/22 00:59:39;;;;;;;5.50;3.88;;;;;;;;;;5072637;28;20052;-79
2023/07/22 01:02:06;;;;;;;9.68;3.80;;;;;;;;;;5075561;28;20043;-77
2023/07/22 01:04:34;;;;;;;14.05;3.97;;;;;;;;;;5071102;28;20044;-76
2023/07/22 01:07:06;;;;;;;7.28;3.70;;;;;;;;;;5069395;28;20239;-78
2023/07/22 01:09:36;;;;;;;7.20;3.55;;;;;;;;;;5066692;28;20120;-77
2023/07/22 01:12:03;;;;;;;7.82;3.95;;;;;;;;;;5066714;28;20116;-78
2023/07/22 01:14:30;;;;;;;6.00;3.40;;;;;;;;;;5075724;28;20047;-79
2023/07/22 01:16:57;;;;;;;14.20;3.92;;;;;;;;;;5077899;28;20072;-77
2023/07/22 01:19:24;;;;;;;8.98;3.60;;;;;;;;;;5077698;28;20052;-78
2023/07/22 01:21:51;;;;;;;7.75;3.63;;;;;;;;;;5073000;28;20046;-77
2023/07/22 01:24:18;;;;;;;5.70;3.78;;;;;;;;;;5071777;28;20437;-77
2023/07/22 01:26:46;;;;;;;8.88;3.60;;;;;;;;;;5083747;28;20111;-76
2023/07/22 01:29:13;;;;;;;10.45;3.78;;;;;;;;;;5068414;28;20060;-77
2023/07/22 01:31:40;;;;;;;10.45;4.32;;;;;;;;;;5065536;28;20072;-79
2023/07/22 01:34:10;;;;;;;17.88;4.68;;;;;;;;;;5072115;28;20055;-77
2023/07/22 01:36:36;;;;;;;10.45;4.40;;;;;;;;;;5070442;28;20060;-77
2023/07/22 01:39:06;;;;;;;6.93;4.30;;;;;;;;;;5071359;28;20044;-78
2023/07/22 01:41:32;;;;;;;10.70;4.63;;;;;;;;;;5071077;28;20041;-78
2023/07/22 01:43:59;;;;;;;12.85;4.80;;;;;;;;;;5072614;28;20131;-77
2023/07/22 01:46:26;;;;;;;11.45;4.75;;;;;;;;;;5070504;28;20041;-78
2023/07/22 01:48:54;;;;;;;13.68;4.75;;;;;;;;;;5067366;28;20048;-78
2023/07/22 01:51:21;;;;;;;13.70;4.75;;;;;;;;;;5071681;28;20052;-78
2023/07/22 01:53:49;;;;;;;17.27;5.40;;;;;;;;;;5068260;28;20063;-78
2023/07/22 01:56:20;;;;;;;8.15;4.85;;;;;;;;;;5063076;28;20118;-78
2023/07/22 01:58:47;;;;;;;12.73;5.30;;;;;;;;;;5053717;28;20048;-77
2023/07/22 02:01:16;;;;;;;11.48;5.07;;;;;;;;;;5066553;28;20072;-78
2023/07/22 02:03:46;;;;;;;9.40;5.40;;;;;;;;;;5038135;28;20144;-77
2023/07/22 02:06:13;;;;;;;14.70;5.30;;;;;;;;;;5068566;28;21174;-76
2023/07/22 02:08:40;;;;;;;14.38;5.15;;;;;;;;;;5067404;28;20086;-77
2023/07/22 02:11:08;;;;;;;14.45;5.07;;;;;;;;;;5058801;28;20037;-77
2023/07/22 02:13:41;;;;;;;9.50;5.07;;;;;;;;;;5047140;28;20044;-78
2023/07/22 02:16:11;;;;;;;9.88;4.72;;;;;;;;;;5059920;28;20047;-77
2023/07/22 02:18:38;;;;;;;9.93;4.90;;;;;;;;;;5069136;28;20094;-78
2023/07/22 02:21:05;;;;;;;11.02;4.68;;;;;;;;;;5070223;28;20064;-78
2023/07/22 02:23:34;;;;;;;10.32;5.05;;;;;;;;;;5062562;28;20353;-78
2023/07/22 02:26:01;;;;;;;11.63;4.47;;;;;;;;;;5066576;28;20434;-78
2023/07/22 02:28:32;;;;;;;16.63;5.15;;;;;;;;;;5068333;28;20052;-78
2023/07/22 02:31:02;;;;;;;12.80;5.25;;;;;;;;;;5059209;28;20523;-78
2023/07/22 02:33:31;;;;;;;10.63;5.05;;;;;;;;;;5066605;28;20040;-78
2023/07/22 02:36:00;;;;;;;13.15;4.80;;;;;;;;;;5059980;28;20083;-78
2023/07/22 02:38:27;;;;;;;8.63;4.93;;;;;;;;;;5066962;28;20503;-78
2023/07/22 02:40:53;;;;;;;10.85;5.15;;;;;;;;;;5069747;28;20040;-78
2023/07/22 02:43:25;;;;;;;10.18;5.22;;;;;;;;;;5070739;28;20113;-78
2023/07/22 02:45:55;;;;;;;14.18;5.18;;;;;;;;;;5061387;28;20122;-78
2023/07/22 02:48:24;;;;;;;10.95;5.47;;;;;;;;;;5074617;28;20068;-78
2023/07/22 02:50:50;;;;;;;8.95;5.00;;;;;;;;;;5063890;28;20041;-79
2023/07/22 02:53:17;;;;;;;14.98;4.90;;;;;;;;;;5068925;28;20075;-79
2023/07/22 02:55:46;;;;;;;9.88;4.97;;;;;;;;;;5056009;28;20049;-79
2023/07/22 02:58:15;;;;;;;14.63;5.20;;;;;;;;;;5068226;28;20048;-78
2023/07/22 03:00:44;;;;;;;11.40;4.88;;;;;;;;;;5055495;28;20128;-79
2023/07/22 03:03:11;;;;;;;14.98;5.55;;;;;;;;;;5069312;28;20048;-79
2023/07/22 03:05:41;;;;;;;11.35;5.18;;;;;;;;;;5065247;28;20060;-79
2023/07/22 03:08:07;;;;;;;12.98;5.00;;;;;;;;;;5068511;28;20135;-77
2023/07/22 03:10:35;;;;;;;15.05;5.40;;;;;;;;;;5060799;28;21170;-78
2023/07/22 03:13:03;;;;;;;10.77;5.18;;;;;;;;;;5068614;28;20051;-78
2023/07/22 03:15:30;;;;;;;12.95;5.80;;;;;;;;;;5055344;28;20523;-76
2023/07/22 03:17:59;;;;;;;10.50;4.90;;;;;;;;;;5073256;28;20409;-77
2023/07/22 03:20:26;;;;;;;15.07;5.10;;;;;;;;;;5059980;28;20047;-80
2023/07/22 03:22:53;;;;;;;15.18;5.93;;;;;;;;;;5068637;28;20045;-78
2023/07/22 03:25:20;;;;;;;15.48;5.82;;;;;;;;;;5066755;28;20072;-78
2023/07/22 03:27:46;;;;;;;11.57;5.85;;;;;;;;;;5075798;28;20046;-78
2023/07/22 03:30:16;;;;;;;9.90;5.97;;;;;;;;;;5069006;28;20037;-80
2023/07/22 03:32:47;;;;;;;14.27;6.18;;;;;;;;;;5060949;28;20041;-78
2023/07/22 03:35:17;;;;;;;16.48;6.88;;;;;;;;;;5070116;28;20036;-77
2023/07/22 03:37:45;;;;;;;14.18;5.88;;;;;;;;;;5074795;28;20071;-80
2023/07/22 03:40:17;;;;;;;9.70;5.25;;;;;;;;;;5057334;28;20539;-77
2023/07/22 03:42:46;;;;;;;19.40;6.75;;;;;;;;;;5066631;28;20096;-79
2023/07/22 03:45:13;;;;;;;10.63;6.10;;;;;;;;;;5066268;28;20045;-80
2023/07/22 03:47:40;;;;;;;13.73;5.97;;;;;;;;;;5069214;28;20126;-79
2023/07/22 03:50:07;;;;;;;12.25;5.90;;;;;;;;;;5065647;28;20045;-77
2023/07/22 03:52:34;;;;;;;14.63;6.07;;;;;;;;;;5071022;28;20068;-79
2023/07/22 03:55:00;;;;;;;11.05;5.68;;;;;;;;;;5071296;28;20063;-79
2023/07/22 03:57:30;;;;;;;12.07;5.90;;;;;;;;;;5069467;28;20044;-80
2023/07/22 03:59:57;;;;;;;11.15;4.78;;;;;;;;;;5069303;28;20041;-80
2023/07/22 04:02:24;;;;;;;11.07;5.97;;;;;;;;;;5069529;28;20048;-80
2023/07/22 04:04:53;;;;;;;14.98;5.68;;;;;;;;;;5072092;28;20060;-79
2023/07/22 04:07:20;;;;;;;11.38;5.43;;;;;;;;;;5068946;28;20063;-79
2023/07/22 04:09:49;;;;;;;9.38;5.50;;;;;;;;;;5068186;28;20044;-79
2023/07/22 04:12:16;;;;;;;11.40;4.72;;;;;;;;;;5065574;28;20050;-79
2023/07/22 04:14:43;;;;;;;8.23;4.47;;;;;;;;;;5072762;28;20131;-79
2023/07/22 04:17:09;;;;;;;10.77;5.32;;;;;;;;;;5070770;28;20041;-79
2023/07/22 04:19:36;;;;;;;7.07;4.70;;;;;;;;;;5068985;28;20045;-77
2023/07/22 04:22:04;;;;;;;10.13;5.50;;;;;;;;;;5066272;28;20052;-79
2023/07/22 04:24:31;;;;;;;11.18;5.07;;;;;;;;;;5069595;28;20048;-78
2023/07/22 04:26:59;;;;;;;10.75;5.00;;;;;;;;;;5070234;28;20040;-77
2023/07/22 04:29:25;;;;;;;9.80;4.75;;;;;;;;;;5069866;28;20055;-78
2023/07/22 04:31:56;;;;;;;9.65;4.90;;;;;;;;;;5070016;28;20119;-78
2023/07/22 04:34:25;;;;;;;17.00;5.63;;;;;;;;;;5072070;28;20440;-78
2023/07/22 04:36:52;;;;;;;11.40;5.28;;;;;;;;;;5070415;28;20037;-79
2023/07/22 04:39:18;;;;;;;14.23;5.05;;;;;;;;;;5072354;28;20045;-79
2023/07/22 04:41:47;;;;;;;9.40;5.03;;;;;;;;;;5076722;28;20045;-79
2023/07/22 04:44:14;;;;;;;8.45;5.10;;;;;;;;;;5062238;28;20136;-78
2023/07/22 04:46:40;;;;;;;13.23;5.50;;;;;;;;;;5075137;28;20124;-80
2023/07/22 04:49:07;;;;;;;11.70;5.10;;;;;;;;;;5067799;28;20041;-77
2023/07/22 04:51:34;;;;;;;8.60;5.10;;;;;;;;;;5060402;28;20052;-78
2023/07/22 04:54:00;;;;;;;12.43;5.70;;;;;;;;;;5067080;28;20047;-79
2023/07/22 04:56:27;;;;;;;13.38;5.28;;;;;;;;;;5060875;28;20078;-80
2023/07/22 04:58:54;;;;;;;9.65;5.50;;;;;;;;;;5059739;28;20053;-79
2023/07/22 05:01:20;;;;;;;8.40;4.90;;;;;;;;;;5064074;28;20045;-79
2023/07/22 05:03:47;;;;;;;13.73;5.30;;;;;;;;;;5066227;28;20098;-78
2023/07/22 05:06:14;;;;;;;8.90;5.18;;;;;;;;;;5062559;28;20063;-77
2023/07/22 05:08:40;;;;;;;8.73;4.80;;;;;;;;;;5069974;28;20139;-79
2023/07/22 05:11:07;;;;;;;13.88;5.50;;;;;;;;;;5063586;28;20052;-78
2023/07/22 05:13:34;;;;;;;8.20;4.82;;;;;;;;;;5069628;28;20041;-78
2023/07/22 05:16:00;;;;;;;11.20;5.32;;;;;;;;;;5064996;28;20045;-79
2023/07/22 05:18:27;;;;;;;9.25;4.90;;;;;;;;;;5062187;28;20048;-79
2023/07/22 05:20:53;;;;;;;12.25;5.20;;;;;;;;;;5058018;28;20411;-77
2023/07/22 05:23:20;;;;;;;7.85;4.65;;;;;;;;;;5063604;28;20059;-78
2023/07/22 05:25:53;;;;;;;10.82;4.57;;;;;;;;;;5059568;28;20406;-79
2023/07/22 05:28:20;;;;;;;11.82;4.97;;;;;;;;;;5062501;28;20052;-78
2023/07/22 05:30:50;;;;;;;10.85;4.63;;;;;;;;;;5069177;28;20058;-78
2023/07/22 05:33:17;;;;;;;7.80;4.78;;;;;;;;;;5056791;28;20532;-77
2023/07/22 05:35:43;;;;;;;7.82;4.63;;;;;;;;;;5060100;28;20055;-77
2023/07/22 05:38:13;;;;;;;8.32;5.07;;;;;;;;;;5066573;28;20051;-78
2023/07/22 05:40:40;;;;;;;7.38;4.57;;;;;;;;;;5059597;28;20086;-78
2023/07/22 05:43:07;;;;;;;9.98;4.85;;;;;;;;;;5056591;28;20059;-77
2023/07/22 05:45:33;;;;;;;11.40;4.53;;;;;;;;;;5068869;28;20068;-77
2023/07/22 05:48:00;;;;;;;10.60;4.43;;;;;;;;;;5072038;28;20450;-78
2023/07/22 05:50:27;;;;;;;10.07;5.00;;;;;;;;;;5059247;28;20055;-77
2023/07/22 05:52:53;;;;;;;13.95;5.07;;;;;;;;;;5062100;28;20071;-77
2023/07/22 05:55:20;;;;;;;11.65;4.90;;;;;;;;;;5054490;28;20059;-78
2023/07/22 05:57:47;;;;;;;10.52;5.10;;;;;;;;;;5057761;28;20049;-78
2023/07/22 06:00:14;;;;;;;14.50;5.97;;;;;;;;;;5059067;28;20045;-78
2023/07/22 06:02:40;;;;;;;9.10;4.97;;;;;;;;;;5058159;28;20048;-78
2023/07/22 06:05:07;;;;;;;13.40;6.30;;;;;;;;;;5063070;28;20045;-78
2023/07/22 06:07:34;;;;;;;11.77;4.85;;;;;;;;;;5061622;28;20094;-79
2023/07/22 06:10:01;;;;;;;12.70;5.80;;;;;;;;;;5064127;28;20051;-79
2023/07/22 06:12:27;;;;;;;10.07;5.50;;;;;;;;;;5060005;28;20612;-78
2023/07/22 06:14:55;;;;;;;14.63;5.88;;;;;;;;;;5058113;28;20036;-77
2023/07/22 06:17:22;;;;;;;11.20;5.60;;;;;;;;;;5052744;28;20052;-78
2023/07/22 06:19:48;;;;;;;12.98;5.80;;;;;;;;;;5058956;28;20090;-78
2023/07/22 06:22:15;;;;;;;10.80;5.13;;;;;;;;;;5056779;28;20052;-78
2023/07/22 06:24:41;;;;;;;10.98;5.50;;;;;;;;;;5054858;28;20631;-77
2023/07/22 06:27:08;;;;;;;17.95;6.40;;;;;;;;;;5055850;28;20784;-76
2023/07/22 06:29:35;;;;;;;13.13;5.68;;;;;;;;;;5058236;28;20049;-78
2023/07/22 06:32:01;;;;;;;15.30;6.07;;;;;;;;;;5059247;28;20135;-77
2023/07/22 06:34:28;;;;;;;12.77;5.97;;;;;;;;;;5055273;28;20044;-79
2023/07/22 06:36:55;;;;;;;16.73;6.78;;;;;;;;;;5057919;28;20049;-76
2023/07/22 06:39:21;;;;;;;15.02;6.22;;;;;;;;;;5054786;28;20430;-77
2023/07/22 06:41:48;;;;;;;14.60;6.35;;;;;;;;;;5057636;28;20052;-77
2023/07/22 06:44:17;;;;;;;11.70;5.65;;;;;;;;;;5056331;28;20040;-77
2023/07/22 06:46:44;;;;;;;14.38;6.45;;;;;;;;;;5057378;28;20106;-78
2023/07/22 06:49:11;;;;;;;16.90;6.55;;;;;;;;;;5055102;28;20068;-77
2023/07/22 06:51:37;;;;;;;13.65;6.00;;;;;;;;;;5051340;28;20053;-78
2023/07/22 06:54:04;;;;;;;10.77;5.90;;;;;;;;;;5055160;28;20056;-78
2023/07/22 06:56:30;;;;;;;11.65;6.00;;;;;;;;;;5052161;28;20080;-77
2023/07/22 06:58:58;;;;;;;11.73;5.65;;;;;;;;;;5050880;28;20041;-77
2023/07/22 07:01:24;;;;;;;12.07;6.05;;;;;;;;;;5057281;28;20072;-77
2023/07/22 07:03:51;;;;;;;10.10;6.03;;;;;;;;;;5057609;28;20051;-78
2023/07/22 07:06:18;;;;;;;14.63;6.03;;;;;;;;;;5051409;28;20086;-78
2023/07/22 07:08:44;;;;;;;12.98;5.93;;;;;;;;;;5051664;28;20080;-78
2023/07/22 07:11:11;;;;;;;14.43;5.47;;;;;;;;;;5057788;28;20131;-76
2023/07/22 07:13:42;;;;;;;18.17;6.20;;;;;;;;;;5059048;28;20147;-78
2023/07/22 07:16:22;;;;;;;10.93;5.10;;;;;;;;;;5060149;28;20052;-77
2023/07/22 07:18:50;;;;;;;12.57;5.72;;;;;;;;;;5056175;28;20044;-78
2023/07/22 07:21:20;;;;;;;11.98;5.88;;;;;;;;;;5055780;28;20119;-77
2023/07/22 07:23:47;;;;;;;9.43;5.13;;;;;;;;;;5056667;28;20522;-80
2023/07/22 07:26:14;;;;;;;14.23;5.75;;;;;;;;;;5054165;28;20506;-77
2023/07/22 07:28:40;;;;;;;10.95;4.95;;;;;;;;;;5055914;28;20053;-77
2023/07/22 07:31:07;;;;;;;12.18;5.70;;;;;;;;;;5058884;28;20107;-78
2023/07/22 07:33:34;;;;;;;11.75;5.45;;;;;;;;;;5056408;28;20045;-77
2023/07/22 07:36:01;;;;;;;7.75;4.95;;;;;;;;;;5058032;28;20257;-78
2023/07/22 07:38:28;;;;;;;9.80;5.20;;;;;;;;;;5054248;28;20052;-78
2023/07/22 07:40:59;;;;;;;10.95;5.50;;;;;;;;;;5051722;28;20145;-77
2023/07/22 07:43:26;;;;;;;12.15;5.72;;;;;;;;;;5046075;28;20087;-78
2023/07/22 07:46:11;;;;;;;11.30;5.57;;;;;;;;;;5055002;28;20060;-78
2023/07/22 07:48:39;;;;;;;10.25;5.35;;;;;;;;;;5058139;28;20049;-78
2023/07/22 07:51:06;;;;;;;9.50;4.78;;;;;;;;;;5062960;28;20051;-77
2023/07/22 07:53:32;;;;;;;9.15;4.93;;;;;;;;;;5057853;28;20048;-78
2023/07/22 07:55:59;;;;;;;10.25;5.80;;;;;;;;;;5056246;28;20059;-79
2023/07/22 07:58:25;;;;;;;12.38;5.75;;;;;;;;;;5059846;28;20083;-79
2023/07/22 08:00:52;;;;;;;9.15;5.55;;;;;;;;;;5061362;28;20049;-78
2023/07/22 08:03:18;;;;;;;9.65;5.55;;;;;;;;;;5059796;28;20574;-78
2023/07/22 08:05:45;;;;;;;8.60;5.18;;;;;;;;;;5058980;28;20157;-76
2023/07/22 08:08:12;;;;;;;10.07;5.60;;;;;;;;;;5058629;28;20450;-77
2023/07/22 08:10:39;;;;;;;9.15;5.32;;;;;;;;;;5054001;28;20047;-80
2023/07/22 08:13:06;;;;;;;11.05;5.30;;;;;;;;;;5049558;28;20515;-77
2023/07/22 08:15:32;;;;;;;9.80;5.50;;;;;;;;;;5049720;28;20052;-77
2023/07/22 08:17:59;;;;;;;12.80;5.03;;;;;;;;;;5060954;28;20037;-78
2023/07/22 08:20:26;;;;;;;10.07;5.50;;;;;;;;;;5060459;28;20036;-78
2023/07/22 08:22:52;;;;;;;13.40;5.38;;;;;;;;;;5063242;28;25511;-76
2023/07/22 08:25:19;;;;;;;11.10;4.82;;;;;;;;;;5062253;28;20041;-78
2023/07/22 08:27:45;;;;;;;9.65;4.82;;;;;;;;;;5062476;28;20045;-78
2023/07/22 08:30:12;;;;;;;9.95;4.68;;;;;;;;;;5062324;28;20044;-77
2023/07/22 08:32:38;;;;;;;9.88;5.15;;;;;;;;;;5054698;28;20373;-77
2023/07/22 08:35:06;;;;;;;10.02;4.88;;;;;;;;;;5054500;28;20033;-78
2023/07/22 08:37:33;;;;;;;6.22;3.67;;;;;;;;;;5065139;28;20044;-79
2023/07/22 08:40:03;;;;;;;8.77;3.65;;;;;;;;;;5061593;28;20406;-78
2023/07/22 08:42:31;;;;;;;6.97;4.45;;;;;;;;;;5062470;28;20421;-77
2023/07/22 08:45:01;;;;;;;7.95;4.18;;;;;;;;;;5064189;28;20513;-77
2023/07/22 08:47:29;;;;;;;8.52;3.80;;;;;;;;;;5056408;28;20063;-78
2023/07/22 08:49:57;;;;;;;7.30;4.30;;;;;;;;;;5065622;28;20091;-77
2023/07/22 08:52:24;;;;;;;9.20;3.80;;;;;;;;;;5065053;28;20043;-77
2023/07/22 08:54:51;;;;;;;9.68;4.20;;;;;;;;;;5070269;28;20054;-79
2023/07/22 08:57:18;;;;;;;8.93;3.80;;;;;;;;;;5071854;28;20072;-79
2023/07/22 08:59:45;;;;;;;5.95;3.90;;;;;;;;;;5064396;28;20053;-79
2023/07/22 09:02:13;;;;;;;7.88;4.18;;;;;;;;;;5072668;28;20040;-80
2023/07/22 09:04:41;;;;;;;6.30;3.67;;;;;;;;;;5071351;28;20103;-79
2023/07/22 09:07:08;;;;;;;5.68;3.65;;;;;;;;;;5071438;28;20400;-79
2023/07/22 09:09:35;;;;;;;5.95;3.60;;;;;;;;;;5073696;28;20388;-78
2023/07/22 09:12:02;;;;;;;5.72;3.20;;;;;;;;;;5073197;28;20044;-79
2023/07/22 09:14:30;;;;;;;4.82;2.90;;;;;;;;;;5067044;28;20059;-78
2023/07/22 09:17:03;;;;;;;5.50;3.17;;;;;;;;;;5071300;28;20129;-79
2023/07/22 09:19:30;;;;;;;8.65;3.10;;;;;;;;;;5072474;28;20087;-80
2023/07/22 09:21:58;;;;;;;4.78;3.10;;;;;;;;;;5073690;28;20043;-79
2023/07/22 09:24:25;;;;;;;5.53;2.92;;;;;;;;;;5055081;28;20048;-81
2023/07/22 09:26:52;;;;;;;4.88;2.88;;;;;;;;;;5068564;28;20547;-79
2023/07/22 09:29:32;;;;;;;6.53;2.70;;;;;;;;;;5065544;28;20071;-79
2023/07/22 09:31:58;;;;;;;6.18;2.90;;;;;;;;;;5072246;28;20052;-79
2023/07/22 09:34:25;;;;;;;3.45;2.42;;;;;;;;;;5072488;28;20052;-79
2023/07/22 09:36:56;;;;;;;5.22;1.95;;;;;;;;;;5075015;28;20055;-79
2023/07/22 09:39:23;;;;;;;3.72;2.20;;;;;;;;;;5068317;28;20108;-79
2023/07/22 09:41:52;;;;;;;4.03;2.10;;;;;;;;;;5069778;28;20044;-77
2023/07/22 09:44:19;;;;;;;4.88;2.40;;;;;;;;;;5062787;28;20052;-80
2023/07/22 09:46:49;;;;;;;3.20;2.22;;;;;;;;;;5070511;28;20399;-79
2023/07/22 09:49:17;;;;;;;4.43;2.30;;;;;;;;;;5063862;28;20109;-78
2023/07/22 09:51:43;;;;;;;3.03;2.13;;;;;;;;;;5071006;28;20052;-80
2023/07/22 09:54:14;;;;;;;4.05;2.28;;;;;;;;;;5069211;28;20492;-79
2023/07/22 09:56:48;;;;;;;2.47;1.60;;;;;;;;;;5060469;28;20044;-79
2023/07/22 09:59:17;;;;;;;3.70;1.90;;;;;;;;;;5051991;28;20048;-79
2023/07/22 10:01:45;;;;;;;3.47;2.00;;;;;;;;;;5065993;28;20047;-79
2023/07/22 10:04:14;;;;;;;4.53;2.08;;;;;;;;;;5068674;28;20044;-78
2023/07/22 10:06:42;;;;;;;3.53;2.03;;;;;;;;;;5055937;28;20590;-78
2023/07/22 10:09:11;;;;;;;1.80;1.52;;;;;;;;;;5064884;28;20064;-78
2023/07/22 10:11:39;;;;;;;2.63;1.90;;;;;;;;;;5061902;28;20041;-78
2023/07/22 10:14:06;;;;;;;2.92;1.60;;;;;;;;;;5067942;28;20045;-78
2023/07/22 10:16:33;;;;;;;2.80;1.98;;;;;;;;;;5073702;28;20528;-78
2023/07/22 10:18:59;;;;;;;4.50;2.05;;;;;;;;;;5064414;28;20801;-77
2023/07/22 10:21:28;;;;;;;3.90;2.03;;;;;;;;;;5060855;28;20049;-78
2023/07/22 10:23:57;;;;;;;5.97;1.90;;;;;;;;;;5069853;28;20047;-78
2023/07/22 10:26:23;;;;;;;3.10;2.20;;;;;;;;;;5068912;28;20421;-78
2023/07/22 10:29:10;;;;;;;3.28;2.20;;;;;;;;;;5069391;28;20577;-80
2023/07/22 10:31:36;;;;;;;4.18;1.90;;;;;;;;;;5071660;28;20044;-79
2023/07/22 10:34:03;;;;;;;4.03;2.30;;;;;;;;;;5072465;28;20414;-79
2023/07/22 10:36:31;;;;;;;5.32;2.00;;;;;;;;;;5058371;28;20131;-78
2023/07/22 10:38:59;;;;;;;3.65;1.88;;;;;;;;;;5065429;28;20071;-79
2023/07/22 10:41:30;;;;;;;3.63;2.22;;;;;;;;;;5067300;28;20508;-78
2023/07/22 10:43:58;;;;;;;2.92;2.05;;;;;;;;;;5064691;28;20470;-79
2023/07/22 10:46:31;;;;;;;3.97;2.22;;;;;;;;;;5069047;28;20102;-78
2023/07/22 10:49:06;;;;;;;2.78;2.05;;;;;;;;;;5069805;28;20037;-79
2023/07/22 10:51:37;;;;;;;3.47;1.88;;;;;;;;;;5064385;28;20059;-78
2023/07/22 10:54:10;;;;;;;2.92;2.22;;;;;;;;;;5068473;28;20044;-78
2023/07/22 10:56:37;;;;;;;4.75;2.38;;;;;;;;;;5047744;28;20519;-78
2023/07/22 10:59:04;;;;;;;3.22;2.13;;;;;;;;;;5066576;28;20068;-79
2023/07/22 11:01:34;;;;;;;3.40;2.15;;;;;;;;;;5058506;28;20036;-78
2023/07/22 11:04:05;;;;;;;3.15;1.95;;;;;;;;;;5070002;28;20423;-79
2023/07/22 11:06:32;;;;;;;3.03;1.90;;;;;;;;;;5068851;28;20051;-77
2023/07/22 11:08:58;;;;;;;2.80;2.20;;;;;;;;;;5063232;28;20072;-79
2023/07/22 11:11:38;;;;;;;2.60;1.75;;;;;;;;;;5066743;28;20518;-79
2023/07/22 11:14:12;;;;;;;3.47;2.13;;;;;;;;;;5068812;28;20158;-78
2023/07/22 11:16:39;;;;;;;2.78;2.13;;;;;;;;;;5065523;28;20051;-79
2023/07/22 11:19:06;;;;;;;4.18;2.25;;;;;;;;;;5070137;28;20112;-78
2023/07/22 11:21:32;;;;;;;3.40;2.00;;;;;;;;;;5070998;28;20048;-80
2023/07/22 11:23:59;;;;;;;2.95;2.20;;;;;;;;;;5065870;28;20127;-79
2023/07/22 11:26:25;;;;;;;4.50;2.30;;;;;;;;;;5071242;28;20060;-78
2023/07/22 11:28:53;;;;;;;4.43;2.13;;;;;;;;;;5071989;28;20040;-77
2023/07/22 11:31:20;;;;;;;3.08;2.00;;;;;;;;;;5075683;28;20055;-79
2023/07/22 11:33:47;;;;;;;3.00;2.03;;;;;;;;;;5075454;28;20078;-79
2023/07/22 11:36:14;;;;;;;2.28;1.73;;;;;;;;;;5070031;28;20195;-78
2023/07/22 11:38:40;;;;;;;2.30;1.70;;;;;;;;;;5066794;28;20040;-78
2023/07/22 11:41:07;;;;;;;2.85;2.00;;;;;;;;;;5066239;28;20037;-78
2023/07/22 11:43:34;;;;;;;2.38;1.90;;;;;;;;;;5067082;28;20459;-79
2023/07/22 11:46:04;;;;;;;3.33;2.05;;;;;;;;;;5061893;28;20521;-79
2023/07/22 11:48:31;;;;;;;2.95;2.20;;;;;;;;;;5063565;28;20052;-77
2023/07/22 11:51:00;;;;;;;3.90;2.00;;;;;;;;;;5063061;28;20099;-79
2023/07/22 11:53:27;;;;;;;3.30;2.17;;;;;;;;;;5069200;28;20049;-78
2023/07/22 11:55:55;;;;;;;4.57;2.35;;;;;;;;;;5064611;28;20098;-80
2023/07/22 11:58:25;;;;;;;3.35;2.20;;;;;;;;;;5065323;28;20052;-78
2023/07/22 12:01:10;;;;;;;4.85;2.40;;;;;;;;;;5062963;28;20049;-78
2023/07/22 12:03:36;;;;;;;4.18;2.25;;;;;;;;;;5066290;28;20044;-78
2023/07/22 12:06:07;;;;;;;2.65;1.98;;;;;;;;;;5067224;28;20068;-78
2023/07/22 12:08:33;;;;;;;3.53;2.13;;;;;;;;;;5063366;28;20051;-78
2023/07/22 12:11:00;;;;;;;3.83;2.33;;;;;;;;;;5068170;28;20476;-80
2023/07/22 12:13:27;;;;;;;3.70;2.55;;;;;;;;;;5060033;28;20059;-79
2023/07/22 12:16:02;;;;;;;3.25;2.45;;;;;;;;;;5067752;28;20127;-77
2023/07/22 12:18:40;;;;;;;3.20;2.13;;;;;;;;;;5064065;28;20048;-78
2023/07/22 12:21:08;;;;;;;5.68;2.22;;;;;;;;;;5068341;28;20072;-77
2023/07/22 12:23:36;;;;;;;2.95;2.13;;;;;;;;;;5059779;28;20056;-78
2023/07/22 12:26:03;;;;;;;4.40;2.53;;;;;;;;;;5069414;28;20079;-78
2023/07/22 12:28:29;;;;;;;4.53;2.50;;;;;;;;;;5071452;28;20054;-78
2023/07/22 12:30:59;;;;;;;3.47;2.45;;;;;;;;;;5070029;28;20060;-77
2023/07/22 12:33:26;;;;;;;4.15;2.53;;;;;;;;;;5066540;28;20534;-78
2023/07/22 12:35:56;;;;;;;4.32;2.50;;;;;;;;;;5060684;28;20048;-79
2023/07/22 12:38:23;;;;;;;2.95;2.22;;;;;;;;;;5066280;28;20098;-79
2023/07/22 12:40:49;;;;;;;3.42;2.40;;;;;;;;;;5065501;28;20063;-78
2023/07/22 12:43:17;;;;;;;3.97;2.45;;;;;;;;;;5068659;28;20054;-79
2023/07/22 12:45:44;;;;;;;3.47;2.33;;;;;;;;;;5065248;28;20083;-79
2023/07/22 12:48:10;;;;;;;3.13;2.38;;;;;;;;;;5071955;28;20049;-78
2023/07/22 12:50:37;;;;;;;3.63;2.15;;;;;;;;;;5065159;28;20104;-79
2023/07/22 12:53:04;;;;;;;2.72;2.05;;;;;;;;;;5063984;28;20044;-77
2023/07/22 12:55:31;;;;;;;3.08;2.30;;;;;;;;;;5065204;28;20075;-79
2023/07/22 12:57:58;;;;;;;4.57;2.50;;;;;;;;;;5065880;28;20051;-77
2023/07/22 13:00:24;;;;;;;4.72;2.70;;;;;;;;;;5071375;28;20052;-78
2023/07/22 13:02:51;;;;;;;3.50;2.20;;;;;;;;;;5067213;28;20399;-78
2023/07/22 13:05:18;;;;;;;3.03;2.22;;;;;;;;;;5063560;28;20047;-80
2023/07/22 13:07:44;;;;;;;4.88;2.15;;;;;;;;;;5069512;28;20110;-79
2023/07/22 13:10:14;;;;;;;5.15;2.35;;;;;;;;;;5067897;28;20044;-79
2023/07/22 13:12:44;;;;;;;3.63;2.42;;;;;;;;;;5069282;28;20076;-78
2023/07/22 13:15:10;;;;;;;3.13;2.03;;;;;;;;;;5070404;28;20123;-79
2023/07/22 13:17:37;;;;;;;3.50;2.25;;;;;;;;;;5064535;28;20514;-79
2023/07/22 13:20:06;;;;;;;5.78;2.50;;;;;;;;;;5063998;28;20040;-77
2023/07/22 13:22:33;;;;;;;4.35;2.40;;;;;;;;;;5064276;28;20503;-79
2023/07/22 13:25:00;;;;;;;4.50;2.40;;;;;;;;;;5070409;28;20048;-79
2023/07/22 13:27:26;;;;;;;3.72;2.35;;;;;;;;;;5064438;28;20104;-78
2023/07/22 13:29:53;;;;;;;3.30;2.28;;;;;;;;;;5069446;28;20131;-79
2023/07/22 13:32:19;;;;;;;3.25;2.25;;;;;;;;;;5069353;28;20053;-77
2023/07/22 13:34:46;;;;;;;3.58;2.25;;;;;;;;;;5068709;28;20048;-78
2023/07/22 13:37:14;;;;;;;3.85;2.33;;;;;;;;;;5061713;28;20048;-79
2023/07/22 13:39:41;;;;;;;2.70;1.83;;;;;;;;;;5066531;28;20051;-78
2023/07/22 13:42:08;;;;;;;7.78;2.42;;;;;;;;;;5070389;28;20041;-79
2023/07/22 13:44:34;;;;;;;4.63;3.00;;;;;;;;;;5072500;28;20082;-78
2023/07/22 13:47:04;;;;;;;5.28;2.40;;;;;;;;;;5071274;28;20040;-79
2023/07/22 13:49:30;;;;;;;5.25;1.90;;;;;;;;;;5070281;28;20059;-78
2023/07/22 13:51:57;;;;;;;4.00;2.58;;;;;;;;;;5071115;28;20430;-78
2023/07/22 13:54:24;;;;;;;5.20;2.28;;;;;;;;;;5072955;28;20064;-79
2023/07/22 13:56:50;;;;;;;4.57;2.53;;;;;;;;;;5069818;28;20067;-79
2023/07/22 13:59:17;;;;;;;3.72;2.50;;;;;;;;;;5073029;28;20059;-79
2023/07/22 14:01:43;;;;;;;3.20;2.20;;;;;;;;;;5065463;28;20036;-79
2023/07/22 14:04:10;;;;;;;4.10;2.20;;;;;;;;;;5070502;28;20041;-79
2023/07/22 14:06:36;;;;;;;3.92;2.47;;;;;;;;;;5066401;28;20131;-78
2023/07/22 14:09:03;;;;;;;6.82;2.60;;;;;;;;;;5057191;28;20041;-78
2023/07/22 14:11:30;;;;;;;3.67;1.90;;;;;;;;;;5067429;28;20056;-79
2023/07/22 14:13:56;;;;;;;4.15;2.33;;;;;;;;;;5068758;28;20040;-79
2023/07/22 14:16:23;;;;;;;4.53;2.35;;;;;;;;;;5061794;28;20045;-78
2023/07/22 14:18:52;;;;;;;3.05;2.22;;;;;;;;;;5061104;28;20059;-79
2023/07/22 14:21:19;;;;;;;3.30;2.30;;;;;;;;;;5068476;28;20063;-79
2023/07/22 14:23:45;;;;;;;3.30;2.33;;;;;;;;;;5061935;28;20044;-80
2023/07/22 14:26:12;;;;;;;3.70;2.10;;;;;;;;;;5072155;28;20059;-79
2023/07/22 14:28:38;;;;;;;3.80;2.45;;;;;;;;;;5071569;28;20048;-78
2023/07/22 14:31:05;;;;;;;3.90;2.25;;;;;;;;;;5067476;28;20043;-78
2023/07/22 14:33:32;;;;;;;3.22;2.30;;;;;;;;;;5060867;28;20140;-79
2023/07/22 14:35:59;;;;;;;3.55;2.33;;;;;;;;;;5066052;28;20457;-78
2023/07/22 14:38:25;;;;;;;3.53;2.30;;;;;;;;;;5065384;28;20049;-78
2023/07/22 14:40:52;;;;;;;3.10;2.30;;;;;;;;;;5067392;28;20418;-78